createdAt,value
2019-02-07T00:00:37.446Z,9.83
2019-02-07T00:03:12.185Z,8.40
2019-02-07T00:05:43.574Z,4.50
2019-02-07T00:08:15.694Z,3.27
2019-02-07T00:10:47.108Z,2.83
2019-02-07T00:13:18.428Z,8.30
2019-02-07T00:15:53.765Z,11.27
2019-02-07T00:18:25.750Z,14.73
2019-02-07T00:21:01.381Z,12.90
2019-02-07T00:23:34.333Z,10.80
2019-02-07T00:26:08.101Z,8.37
2019-02-07T00:28:39.878Z,6.90
2019-02-07T00:31:12.858Z,5.30
2019-02-07T00:33:47.536Z,6.40
2019-02-07T00:36:22.744Z,8.83
2019-02-07T00:38:57.415Z,11.20
2019-02-07T00:41:28.627Z,9.40
2019-02-07T00:44:04.818Z,7.10
2019-02-07T00:46:37.948Z,4.50
2019-02-07T00:49:09.876Z,4.50
2019-02-07T00:51:43.815Z,4.93
2019-02-07T00:54:18.280Z,6.70
2019-02-07T00:56:49.526Z,9.00
2019-02-07T00:59:22.825Z,11.30
2019-02-07T01:01:58.231Z,7.57
2019-02-07T01:04:32.576Z,8.10
2019-02-07T01:07:05.782Z,6.80
2019-02-07T01:09:37.865Z,5.03
2019-02-07T01:12:09.896Z,4.40
2019-02-07T01:14:41.154Z,5.33
2019-02-07T01:17:14.863Z,6.20
2019-02-07T01:19:48.848Z,4.93
2019-02-07T01:22:20.052Z,4.97
2019-02-07T01:24:54.009Z,5.20
2019-02-07T01:27:28.175Z,3.20
2019-02-07T01:30:01.006Z,2.53
2019-02-07T01:32:32.819Z,1.90
2019-02-07T01:35:04.007Z,2.90
2019-02-07T01:37:35.224Z,4.77
2019-02-07T01:40:11.546Z,4.90
2019-02-07T01:42:45.558Z,4.00
2019-02-07T01:45:20.987Z,4.10
2019-02-07T01:47:53.181Z,3.83
2019-02-07T01:50:25.269Z,3.90
2019-02-07T01:52:58.110Z,5.10
2019-02-07T01:55:32.070Z,3.30
2019-02-07T01:58:03.681Z,5.13
2019-02-07T02:00:34.960Z,6.40
2019-02-07T02:03:09.457Z,6.23
2019-02-07T02:05:43.005Z,6.00
2019-02-07T02:08:16.401Z,6.07
2019-02-07T02:10:47.674Z,6.33
2019-02-07T02:13:22.233Z,5.63
2019-02-07T02:15:56.235Z,5.87
2019-02-07T02:18:29.204Z,5.13
2019-02-07T02:21:04.254Z,6.37
2019-02-07T02:23:35.493Z,5.30
2019-02-07T02:26:08.130Z,5.63
2019-02-07T02:28:39.343Z,4.10
2019-02-07T02:31:13.415Z,2.20
2019-02-07T02:33:45.739Z,3.13
2019-02-07T02:36:18.250Z,2.80
2019-02-07T02:38:53.550Z,2.63
2019-02-07T02:41:25.379Z,3.43
2019-02-07T02:44:00.874Z,2.67
2019-02-07T02:46:34.353Z,2.63
2019-02-07T02:49:08.318Z,2.57
2019-02-07T02:51:41.459Z,3.33
2019-02-07T02:54:35.218Z,3.73
2019-02-07T02:57:08.496Z,2.83
2019-02-07T02:59:41.352Z,4.40
2019-02-07T03:02:31.368Z,4.07
2019-02-07T03:05:43.994Z,5.20
2019-02-07T03:08:40.604Z,4.50
2019-02-07T03:11:41.241Z,4.70
2019-02-07T03:14:42.155Z,2.57
2019-02-07T03:17:37.429Z,2.73
2019-02-07T03:20:44.789Z,2.43
2019-02-07T03:23:42.398Z,2.23
2019-02-07T03:26:34.337Z,2.20
2019-02-07T03:29:36.412Z,2.50
2019-02-07T03:32:22.484Z,1.73
2019-02-07T03:35:12.485Z,1.80
2019-02-07T03:38:02.025Z,2.70
2019-02-07T03:40:59.282Z,2.47
2019-02-07T03:43:48.244Z,3.00
2019-02-07T03:46:40.277Z,2.20
2019-02-07T03:49:19.170Z,2.13
2019-02-07T03:52:22.273Z,1.97
2019-02-07T03:55:13.163Z,1.80
2019-02-07T03:58:03.404Z,3.23
2019-02-07T04:00:59.828Z,2.00
2019-02-07T04:03:43.970Z,2.77
2019-02-07T04:06:49.679Z,2.77
2019-02-07T04:09:41.983Z,2.50
2019-02-07T04:12:26.592Z,2.60
2019-02-07T04:15:17.182Z,4.07
2019-02-07T04:18:07.615Z,2.50
2019-02-07T04:20:58.731Z,3.53
2019-02-07T04:23:52.452Z,3.47
2019-02-07T04:26:42.744Z,3.53
2019-02-07T04:29:25.734Z,3.40
2019-02-07T04:32:18.122Z,3.80
2019-02-07T04:35:01.628Z,3.47
2019-02-07T04:38:00.477Z,2.50
2019-02-07T04:40:41.796Z,3.50
2019-02-07T04:43:44.194Z,3.00
2019-02-07T04:46:44.727Z,3.30
2019-02-07T04:49:28.772Z,3.73
2019-02-07T04:52:26.882Z,3.40
2019-02-07T04:55:19.016Z,3.77
2019-02-07T04:58:11.222Z,5.10
2019-02-07T05:00:53.905Z,3.60
2019-02-07T05:04:03.340Z,3.10
2019-02-07T05:06:48.990Z,3.93
2019-02-07T05:09:49.900Z,3.60
2019-02-07T05:12:33.277Z,5.33
2019-02-07T05:15:26.111Z,5.20
2019-02-07T05:18:14.184Z,4.60
2019-02-07T05:21:02.013Z,4.37
2019-02-07T05:23:47.487Z,4.10
2019-02-07T05:26:36.847Z,4.20
2019-02-07T05:29:23.907Z,4.70
2019-02-07T05:32:12.531Z,4.87
2019-02-07T05:35:01.763Z,6.27
2019-02-07T05:37:52.352Z,5.23
2019-02-07T05:40:43.679Z,7.07
2019-02-07T05:43:54.765Z,10.87
2019-02-07T05:46:51.017Z,17.00
2019-02-07T05:49:38.992Z,13.67
2019-02-07T05:52:37.126Z,13.60
2019-02-07T05:55:41.202Z,23.30
2019-02-07T05:58:45.323Z,27.23
2019-02-07T06:01:35.946Z,21.47
2019-02-07T06:04:23.743Z,14.67
2019-02-07T06:07:18.181Z,11.10
2019-02-07T06:10:13.479Z,10.40
2019-02-07T06:13:15.235Z,7.10
2019-02-07T06:16:11.756Z,9.50
2019-02-07T06:19:01.129Z,7.33
2019-02-07T06:22:02.985Z,6.37
2019-02-07T06:25:04.186Z,7.60
2019-02-07T06:28:09.390Z,7.17
2019-02-07T06:30:48.565Z,8.83
2019-02-07T06:33:38.926Z,5.93
2019-02-07T06:36:28.125Z,9.73
2019-02-07T06:39:21.459Z,7.50
2019-02-07T06:42:20.140Z,6.80
2019-02-07T06:45:09.819Z,7.97
2019-02-07T06:48:00.350Z,7.27
2019-02-07T06:50:50.512Z,8.20
2019-02-07T06:53:39.813Z,18.37
2019-02-07T06:56:30.562Z,16.93
2019-02-07T06:59:22.397Z,10.60
2019-02-07T07:02:20.665Z,5.40
2019-02-07T07:05:25.456Z,6.83
2019-02-07T07:08:35.805Z,7.47
2019-02-07T07:11:21.953Z,9.20
2019-02-07T07:14:21.569Z,12.03
2019-02-07T07:17:06.534Z,9.40
2019-02-07T07:19:54.579Z,8.93
2019-02-07T07:22:53.762Z,7.50
2019-02-07T07:25:54.636Z,6.03
2019-02-07T07:28:45.541Z,5.67
2019-02-07T07:31:37.539Z,7.43
2019-02-07T07:34:29.544Z,12.90
2019-02-07T07:37:24.583Z,8.80
2019-02-07T07:40:22.369Z,6.90
2019-02-07T07:43:05.916Z,6.37
2019-02-07T07:46:00.544Z,6.90
2019-02-07T07:48:54.198Z,10.80
2019-02-07T07:51:44.396Z,11.60
2019-02-07T07:54:40.833Z,12.87
2019-02-07T07:57:31.650Z,16.97
2019-02-07T08:00:26.315Z,18.53
2019-02-07T08:03:24.375Z,16.50
2019-02-07T08:06:35.110Z,16.63
2019-02-07T08:09:20.778Z,14.03
2019-02-07T08:12:18.493Z,15.53
2019-02-07T08:15:09.261Z,14.63
2019-02-07T08:18:01.279Z,14.03
2019-02-07T08:20:45.343Z,15.03
2019-02-07T08:23:35.772Z,14.63
2019-02-07T08:26:40.101Z,12.87
2019-02-07T08:29:30.662Z,11.80
2019-02-07T08:32:32.566Z,14.07
2019-02-07T08:35:34.303Z,15.33
2019-02-07T08:38:39.339Z,13.50
2019-02-07T08:41:27.003Z,14.10
2019-02-07T08:44:21.310Z,12.63
2019-02-07T08:47:10.687Z,12.83
2019-02-07T08:52:59.712Z,14.10
2019-02-07T08:55:51.021Z,15.13
2019-02-07T08:58:55.126Z,13.03
2019-02-07T09:01:38.035Z,16.40
2019-02-07T09:04:24.251Z,13.60
2019-02-07T09:07:18.021Z,18.93
2019-02-07T09:10:23.496Z,18.53
2019-02-07T09:13:10.369Z,17.00
2019-02-07T09:15:52.098Z,16.43
2019-02-07T09:18:44.755Z,14.27
2019-02-07T09:21:37.533Z,15.23
2019-02-07T09:24:32.808Z,14.97
2019-02-07T09:27:22.892Z,12.93
2019-02-07T09:30:11.425Z,14.37
2019-02-07T09:33:03.588Z,13.90
2019-02-07T09:36:04.574Z,13.77
2019-02-07T09:38:45.069Z,15.30
2019-02-07T09:41:47.796Z,15.70
2019-02-07T09:44:46.358Z,16.37
2019-02-07T09:47:42.892Z,18.13
2019-02-07T09:50:32.196Z,20.00
2019-02-07T09:53:26.342Z,18.77
2019-02-07T09:56:19.857Z,19.53
2019-02-07T09:59:22.378Z,19.57
2019-02-07T10:02:28.424Z,19.10
2019-02-07T10:05:10.586Z,19.60
2019-02-07T10:08:21.747Z,20.63
2019-02-07T10:11:16.184Z,19.40
2019-02-07T10:14:09.914Z,20.80
2019-02-07T10:17:08.832Z,21.43
2019-02-07T10:19:57.946Z,21.43
2019-02-07T10:23:08.842Z,23.20
2019-02-07T10:26:01.407Z,20.83
2019-02-07T10:28:48.148Z,22.97
2019-02-07T10:31:48.329Z,20.30
2019-02-07T10:34:40.422Z,22.23
2019-02-07T10:37:41.770Z,22.63
2019-02-07T10:40:33.785Z,21.80
2019-02-07T10:43:27.201Z,22.93
2019-02-07T10:46:25.781Z,20.13
2019-02-07T10:49:15.556Z,18.33
2019-02-07T10:52:06.420Z,24.00
2019-02-07T10:55:06.819Z,23.43
2019-02-07T10:57:52.099Z,20.57
2019-02-07T11:00:56.360Z,19.70
2019-02-07T11:03:57.879Z,22.30
2019-02-07T11:06:56.534Z,20.53
2019-02-07T11:09:46.567Z,22.00
2019-02-07T11:12:39.092Z,24.80
2019-02-07T11:15:38.288Z,21.97
2019-02-07T11:18:32.595Z,21.93
2019-02-07T11:21:21.384Z,22.77
2019-02-07T11:24:12.781Z,23.17
2019-02-07T11:27:02.257Z,21.87
2019-02-07T11:29:49.699Z,20.53
2019-02-07T11:32:47.833Z,20.20
2019-02-07T11:35:53.528Z,22.50
2019-02-07T11:38:41.989Z,19.33
2019-02-07T11:41:49.458Z,20.50
2019-02-07T11:44:39.724Z,22.80
2019-02-07T11:47:31.943Z,24.10
2019-02-07T11:50:31.528Z,20.13
2019-02-07T11:53:28.878Z,20.90
2019-02-07T11:56:19.599Z,22.53
2019-02-07T11:59:08.506Z,22.83
2019-02-07T12:02:08.733Z,21.30
2019-02-07T12:04:43.448Z,24.50
2019-02-07T12:07:25.024Z,24.37
2019-02-07T12:10:34.844Z,26.37
2019-02-07T12:13:36.490Z,25.43
2019-02-07T12:16:27.829Z,25.50
2019-02-07T12:19:20.248Z,27.37
2019-02-07T12:22:25.395Z,27.50
2019-02-07T12:25:14.168Z,29.13
2019-02-07T12:28:12.580Z,29.73
2019-02-07T12:31:02.954Z,32.70
2019-02-07T12:33:56.169Z,30.90
2019-02-07T12:36:58.079Z,31.47
2019-02-07T12:39:47.568Z,31.83
2019-02-07T12:42:36.995Z,33.03
2019-02-07T12:45:33.354Z,34.60
2019-02-07T12:48:19.222Z,30.37
2019-02-07T12:51:17.019Z,30.67
2019-02-07T12:54:11.930Z,27.47
2019-02-07T12:57:02.836Z,28.37
2019-02-07T12:59:45.482Z,27.27
2019-02-07T13:02:54.803Z,28.77
2019-02-07T13:05:53.694Z,28.73
2019-02-07T13:08:36.800Z,29.97
2019-02-07T13:11:31.218Z,26.83
2019-02-07T13:14:33.174Z,28.53
2019-02-07T13:17:31.966Z,28.80
2019-02-07T13:20:10.903Z,29.23
2019-02-07T13:23:01.667Z,29.23
2019-02-07T13:25:49.529Z,30.27
2019-02-07T13:28:33.952Z,28.27
2019-02-07T13:31:26.393Z,31.67
2019-02-07T13:34:18.596Z,32.37
2019-02-07T13:37:13.492Z,33.57
2019-02-07T13:40:05.404Z,33.50
2019-02-07T13:43:03.918Z,35.27
2019-02-07T13:45:53.401Z,32.50
2019-02-07T13:48:33.030Z,32.90
2019-02-07T13:51:40.590Z,31.30
2019-02-07T13:54:30.219Z,33.20
2019-02-07T13:57:23.065Z,31.13
2019-02-07T14:00:18.608Z,33.97
2019-02-07T14:03:07.852Z,35.60
2019-02-07T14:05:58.036Z,38.60
2019-02-07T14:08:57.686Z,41.17
2019-02-07T14:11:50.436Z,34.90
2019-02-07T14:14:38.156Z,33.10
2019-02-07T14:17:28.292Z,34.30
2019-02-07T14:20:19.901Z,34.27
2019-02-07T14:23:13.170Z,34.90
2019-02-07T14:25:59.831Z,34.33
2019-02-07T14:28:57.091Z,36.20
2019-02-07T14:32:07.655Z,33.50
2019-02-07T14:35:16.780Z,36.20
2019-02-07T14:38:07.149Z,34.37
2019-02-07T14:40:56.508Z,33.00
2019-02-07T14:43:53.916Z,32.30
2019-02-07T14:46:44.452Z,39.10
2019-02-07T14:49:15.673Z,35.90
2019-02-07T14:51:47.797Z,38.07
2019-02-07T14:54:21.032Z,37.10
2019-02-07T14:56:55.342Z,36.30
2019-02-07T14:59:28.784Z,38.43
2019-02-07T15:02:03.630Z,37.63
2019-02-07T15:04:34.519Z,35.40
2019-02-07T15:07:07.811Z,35.77
2019-02-07T15:09:41.752Z,38.17
2019-02-07T15:12:17.520Z,36.47
2019-02-07T15:14:51.719Z,36.77
2019-02-07T15:17:24.051Z,39.50
2019-02-07T15:19:56.985Z,36.03
2019-02-07T15:22:31.056Z,39.00
2019-02-07T15:25:02.680Z,37.40
2019-02-07T15:27:35.661Z,40.30
2019-02-07T15:30:12.574Z,40.00
2019-02-07T15:32:47.407Z,40.37
2019-02-07T15:35:22.524Z,40.90
2019-02-07T15:37:55.159Z,37.03
2019-02-07T15:40:28.933Z,37.30
2019-02-07T15:43:02.892Z,40.87
2019-02-07T15:45:35.830Z,40.90
2019-02-07T15:48:08.232Z,40.27
2019-02-07T15:50:41.730Z,38.40
2019-02-07T15:53:15.948Z,40.00
2019-02-07T15:55:48.840Z,38.57
2019-02-07T15:58:29.699Z,39.67
2019-02-07T16:01:17.545Z,48.30
2019-02-07T16:04:15.360Z,47.50
2019-02-07T16:06:47.624Z,40.47
2019-02-07T16:09:22.607Z,40.33
2019-02-07T16:11:55.109Z,40.80
2019-02-07T16:14:28.899Z,40.57
2019-02-07T16:17:03.116Z,43.53
2019-02-07T16:19:35.702Z,42.07
2019-02-07T16:22:08.088Z,42.47
2019-02-07T16:24:40.065Z,43.87
2019-02-07T16:27:13.005Z,40.57
2019-02-07T16:29:46.176Z,47.00
2019-02-07T16:32:20.189Z,39.50
2019-02-07T16:34:54.102Z,37.90
2019-02-07T16:37:28.591Z,40.67
2019-02-07T16:40:02.101Z,39.03
2019-02-07T16:42:35.672Z,43.20
2019-02-07T16:45:09.389Z,47.97
2019-02-07T16:47:42.139Z,58.77
2019-02-07T16:50:16.758Z,77.23
2019-02-07T16:52:49.147Z,66.03
2019-02-07T16:55:25.325Z,53.80
2019-02-07T16:58:00.894Z,54.63
2019-02-07T17:00:35.396Z,48.53
2019-02-07T17:03:07.768Z,45.07
2019-02-07T17:05:38.951Z,39.97
2019-02-07T17:14:52.041Z,39.67
2019-02-07T17:17:28.170Z,35.57
2019-02-07T17:19:59.391Z,35.90
2019-02-07T17:22:33.397Z,38.30
2019-02-07T17:25:07.369Z,38.60
2019-02-07T17:27:39.377Z,37.77
2019-02-07T17:30:14.596Z,37.07
2019-02-07T17:32:48.704Z,40.13
2019-02-07T17:35:21.151Z,38.37
2019-02-07T17:37:54.274Z,38.03
2019-02-07T17:40:28.273Z,38.13
2019-02-07T17:42:59.509Z,36.33
2019-02-07T17:45:32.512Z,36.50
2019-02-07T17:48:04.393Z,37.33
2019-02-07T17:50:35.751Z,38.20
2019-02-07T17:53:09.733Z,38.23
2019-02-07T17:55:43.025Z,37.20
2019-02-07T17:58:17.416Z,36.33
2019-02-07T18:01:00.149Z,38.43
2019-02-07T18:03:31.629Z,37.23
2019-02-07T18:06:06.377Z,37.80
2019-02-07T18:08:38.227Z,38.43
2019-02-07T18:11:10.738Z,38.50
2019-02-07T18:13:42.462Z,39.17
2019-02-07T18:16:14.603Z,47.50
2019-02-07T18:18:50.323Z,46.67
2019-02-07T18:21:33.706Z,49.60
2019-02-07T18:23:56.651Z,47.40
2019-02-07T18:26:30.763Z,49.67
2019-02-07T18:29:04.702Z,43.10
2019-02-07T18:31:36.258Z,40.40
2019-02-07T18:34:10.797Z,41.97
2019-02-07T18:36:43.547Z,44.40
2019-02-07T18:39:14.798Z,43.57
2019-02-07T18:41:48.049Z,39.37
2019-02-07T18:44:19.621Z,37.30
2019-02-07T18:46:53.789Z,36.13
2019-02-07T18:49:27.527Z,39.67
2019-02-07T18:51:58.791Z,39.60
2019-02-07T18:54:32.718Z,40.37
2019-02-07T18:57:06.722Z,47.90
2019-02-07T18:59:39.541Z,44.23
2019-02-07T19:02:12.321Z,39.73
2019-02-07T19:04:45.698Z,41.23
2019-02-07T19:07:19.713Z,40.97
2019-02-07T19:09:53.731Z,45.57
2019-02-07T19:12:25.841Z,45.47
2019-02-07T19:14:58.596Z,48.73
2019-02-07T19:17:29.849Z,53.00
2019-02-07T19:20:03.865Z,57.73
2019-02-07T19:22:36.801Z,56.70
2019-02-07T19:25:11.184Z,38.87
2019-02-07T19:27:42.721Z,38.23
2019-02-07T19:30:25.219Z,39.50
2019-02-07T19:32:59.851Z,37.07
2019-02-07T19:35:33.448Z,36.53
2019-02-07T19:38:06.707Z,37.63
2019-02-07T19:40:38.358Z,52.57
2019-02-07T19:43:09.672Z,45.47
2019-02-07T19:45:44.683Z,45.37
2019-02-07T19:48:19.193Z,45.57
2019-02-07T19:50:51.750Z,42.70
2019-02-07T19:53:26.749Z,46.97
2019-02-07T19:55:59.184Z,42.80
2019-02-07T19:58:31.904Z,46.50
2019-02-07T20:01:06.003Z,46.13
2019-02-07T20:03:39.035Z,44.30
2019-02-07T20:06:10.663Z,44.27
2019-02-07T20:08:41.944Z,45.57
2019-02-07T20:11:16.042Z,43.83
2019-02-07T20:13:51.138Z,42.60
2019-02-07T20:16:22.766Z,43.20
2019-02-07T20:18:58.780Z,46.97
2019-02-07T20:21:30.179Z,49.90
2019-02-07T20:24:04.208Z,45.53
2019-02-07T20:26:36.340Z,44.20
2019-02-07T20:29:09.295Z,46.53
2019-02-07T20:31:42.046Z,43.60
2019-02-07T20:34:14.026Z,44.07
2019-02-07T20:36:45.553Z,46.17
2019-02-07T20:39:19.203Z,47.30
2019-02-07T20:41:53.196Z,44.60
2019-02-07T20:44:27.232Z,49.17
2019-02-07T20:47:02.755Z,51.87
2019-02-07T20:49:35.382Z,43.37
2019-02-07T20:52:07.982Z,47.10
2019-02-07T20:54:40.593Z,48.10
2019-02-07T20:57:14.275Z,54.27
2019-02-07T20:59:48.360Z,44.00
2019-02-07T21:02:22.299Z,42.30
2019-02-07T21:04:53.550Z,42.37
2019-02-07T21:07:27.115Z,41.27
2019-02-07T21:09:58.351Z,37.57
2019-02-07T21:12:33.141Z,35.77
2019-02-07T21:15:09.728Z,30.80
2019-02-07T21:17:46.784Z,32.00
2019-02-07T21:20:26.584Z,29.60
2019-02-07T21:23:00.720Z,29.27
2019-02-07T21:25:37.723Z,29.43
2019-02-07T21:28:12.320Z,29.80
2019-02-07T21:30:44.399Z,30.07
2019-02-07T21:33:16.553Z,31.00
2019-02-07T21:35:50.425Z,32.80
2019-02-07T21:38:23.534Z,39.07
2019-02-07T21:40:56.735Z,36.83
2019-02-07T21:43:29.579Z,35.27
2019-02-07T21:46:03.514Z,36.87
2019-02-07T21:48:36.997Z,29.07
2019-02-07T21:51:10.556Z,19.80
2019-02-07T21:53:42.442Z,19.67
2019-02-07T21:56:15.390Z,17.87
2019-02-07T21:58:46.964Z,17.07
2019-02-07T22:01:19.778Z,16.43
2019-02-07T22:03:58.696Z,15.47
2019-02-07T22:06:31.568Z,11.60
2019-02-07T22:09:12.730Z,8.53
2019-02-07T22:11:45.670Z,7.33
2019-02-07T22:14:19.645Z,6.87
2019-02-07T22:16:53.679Z,6.30
2019-02-07T22:19:24.890Z,7.27
2019-02-07T22:21:58.721Z,6.47
2019-02-07T22:24:33.107Z,5.77
2019-02-07T22:27:06.646Z,6.40
2019-02-07T22:29:39.764Z,5.60
2019-02-07T22:32:13.292Z,5.63
2019-02-07T22:34:45.713Z,5.70
2019-02-07T22:37:16.908Z,6.47
2019-02-07T22:39:50.142Z,6.80
2019-02-07T22:42:23.308Z,6.27
2019-02-07T22:44:57.315Z,7.57
2019-02-07T22:47:29.733Z,8.03
2019-02-07T22:50:03.731Z,7.63
2019-02-07T22:52:36.348Z,8.00
2019-02-07T22:55:08.342Z,9.80
2019-02-07T22:57:43.635Z,9.47
2019-02-07T23:01:10.215Z,13.37
2019-02-07T23:03:46.515Z,24.90
2019-02-07T23:06:18.809Z,27.83
2019-02-07T23:08:55.416Z,28.47
2019-02-07T23:11:26.719Z,32.30
2019-02-07T23:13:58.125Z,29.00
2019-02-07T23:16:31.541Z,30.00
2019-02-07T23:19:02.786Z,33.93
2019-02-07T23:21:36.217Z,36.60
2019-02-07T23:24:08.155Z,37.57
2019-02-07T23:26:39.797Z,35.87
2019-02-07T23:29:13.372Z,32.20
2019-02-07T23:31:45.784Z,35.27
2019-02-07T23:34:17.955Z,33.73
2019-02-07T23:36:50.922Z,34.20
2019-02-07T23:39:25.421Z,32.80
2019-02-07T23:41:58.239Z,30.87
2019-02-07T23:44:29.971Z,18.97
2019-02-07T23:47:04.047Z,17.37
2019-02-07T23:49:36.448Z,15.80
2019-02-07T23:52:09.113Z,10.90
2019-02-07T23:54:44.760Z,10.50
2019-02-07T23:57:17.306Z,9.80
2019-02-07T23:59:51.184Z,9.17
